• Join FlightAware (Why Join?)
  • Login
  • US Flag 
12:25PM EST


 

Airport Tracker/Info


-or-


 

Live Flight TrackerFlight Track Log ✈ SKW6290 ✈ 17-Sep-2013 ✈ KPSP - KSFO

Flight Track Log - Related Links

Times and Time Zones

All times are in EDT time to prevent confusion due to time zone crossing. See the SKW6290 flight status page for this flight to view local times or setup timezone preferences in your user account.

Time Position Orientation Groundspeed Altitude Reporting Facility
EDT Latitude Longitude Course Direction KTS MPH feet Rate Location/Type
09:17PM 33.9006 -116.5692 323° Northwest 221 254 26,000  Level Los Angeles Center
09:18PM 33.9567 -116.5431 21° North 224 258 5,700 -8,855 Descending Los Angeles Center
09:19PM 34.0303 -116.5267 10° North 294 338 7,700 1,984 Climbing Los Angeles Center
09:20PM 34.1139 -116.5267 360° North 292 336 9,800 1,742 Climbing Los Angeles Center
09:21PM 34.2295 -117.0811 276° West  Level Estimated
09:21PM 34.1894 -116.5558 342° North 301 346 11,300  Level Los Angeles Center
09:22PM 34.2781 -116.5878 343° North 327 376 12,700 1,463 Climbing Los Angeles Center
09:23PM 34.3625 -116.6683 322° Northwest 342 394 14,300 1,268 Climbing Los Angeles Center
09:24PM 34.3836 -116.7769 283° West 334 384 15,300 1,210 Climbing Los Angeles Center
09:25PM 34.4058 -116.8850 284° West 332 382 16,800 1,161 Climbing Los Angeles Center
09:26PM 34.4281 -116.9967 284° West 339 390 17,700 1,113 Climbing Los Angeles Center
09:27PM 34.4508 -117.1183 283° West 352 405 19,100 1,258 Climbing Los Angeles Center
09:28PM 34.4731 -117.2272 284° West 351 404 20,300 968 Climbing Los Angeles Center
09:29PM 34.4953 -117.3436 283° West 352 405 21,100 871 Climbing Los Angeles Center
09:30PM 34.5219 -117.4872 283° West 363 418 22,100 774 Climbing Los Angeles Center
09:31PM 34.5456 -117.6072 283° West 364 419 22,700 726 Climbing Los Angeles Center
09:32PM 34.5678 -117.7253 283° West 361 415 23,600 732 Climbing Los Angeles Center
09:33PM 34.5897 -117.8436 283° West 359 413 24,200 585 Climbing Los Angeles Center
09:34PM 34.6131 -117.9647 283° West 369 425 24,800 581 Climbing Los Angeles Center
09:35PM 34.6458 -118.0817 289° West 373 429 25,400 581 Climbing Los Angeles Center
09:36PM 34.6994 -118.1894 301° West 371 427 26,000 290 Climbing Los Angeles Center
09:37PM 34.7575 -118.2978 303° West 378 435 26,000  Level Los Angeles Center
09:38PM 34.8294 -118.4314 303° West 389 448 26,000  Level Los Angeles Center
09:39PM 34.8853 -118.5344 303° West 409 471 26,000  Level Los Angeles Center
09:40PM 34.9583 -118.6689 304° West 402 463 26,000  Level Los Angeles Center
09:42PM 35.0200 -118.7839 303° West 405 466 26,000  Level Los Angeles Center
09:43PM 35.0775 -118.9058 300° West 414 476 26,000  Level Los Angeles Center
09:44PM 35.1289 -119.0278 297° West 408 470 26,000  Level Los Angeles Center
09:45PM 35.1806 -119.1514 297° West 407 468 26,000  Level Los Angeles Center
09:46PM 35.2317 -119.2750 297° West 408 470 26,000  Level Los Angeles Center
09:47PM 35.2939 -119.4214 298° West 407 468 26,000  Level Los Angeles Center
09:48PM 35.3447 -119.5447 297° West 407 468 26,000  Level Los Angeles Center
09:49PM 35.3944 -119.6658 297° West 402 463 26,000  Level Los Angeles Center
09:50PM 35.4444 -119.7889 297° West 403 464 26,000  Level Los Angeles Center
09:51PM 35.4931 -119.9089 296° West 399 459 26,000  Level Los Angeles Center
09:52PM 35.5431 -120.0311 297° West 402 463 26,000  Level Los Angeles Center
09:53PM 35.5925 -120.1542 296° West 400 460 26,000  Level Los Angeles Center
09:54PM 35.6308 -120.2489 296° West 402 463 26,000  Level Oakland Center
09:55PM 35.6797 -120.3703 296° West 402 463 26,000  Level Oakland Center
09:56PM 35.7172 -120.4964 290° West 406 467 26,000  Level Oakland Center
09:57PM 35.7256 -120.6303 274° West 399 459 26,000  Level Oakland Center
09:58PM 35.7339 -120.7656 274° West 399 459 26,000  Level Oakland Center
09:59PM 35.7433 -120.9294 274° West 402 463 26,000  Level Oakland Center
10:00PM 35.7511 -121.0656 274° West 401 461 26,000  Level Oakland Center
10:01PM 35.8031 -121.1825 299° West 411 473 26,000  Level Oakland Center
10:02PM 35.8978 -121.2642 325° Northwest 415 478 26,000  Level Oakland Center
10:03PM 35.9933 -121.3431 326° Northwest 414 476 26,000  Level Oakland Center
10:04PM 36.0867 -121.4197 326° Northwest 406 467 26,000 -98 Level Oakland Center
10:05PM 36.1769 -121.4931 327° Northwest 393 452 25,800 -934 Descending Oakland Center
10:06PM 36.2678 -121.5656 327° Northwest 388 447 24,100 -1,610 Descending Oakland Center
10:07PM 36.3542 -121.6378 326° Northwest 380 437 22,500 -1,561 Descending Oakland Center
10:08PM 36.4369 -121.7072 326° Northwest 364 419 20,900 -1,531 Descending Oakland Center
10:08PM 36.5000 -121.7667 323° Northwest 352 405 20,000 -557 Descending Northern Cal TRACON
10:09PM 36.5833 -121.8333 327° Northwest 346 398 20,000 -750 Level Northern Cal TRACON
10:10PM 36.6667 -121.9000 327° Northwest 346 398 18,500 -1,474 Descending Northern Cal TRACON
10:11PM 36.7333 -121.9500 329° Northwest 342 394 17,200 -1,550 Descending Northern Cal TRACON
10:12PM 36.8333 -121.9833 345° North 340 391 15,400 -1,600 Descending Northern Cal TRACON
10:13PM 36.9167 -122.0000 351° North 338 389 14,000 -1,533 Descending Northern Cal TRACON
10:14PM 36.9644 -122.0228 339° North 335 386 13,100 -1,546 Descending Oakland Center
10:15PM 37.0533 -122.0458 348° North 327 376 11,500 -1,525 Descending Oakland Center
10:16PM 37.1392 -122.0689 348° North 318 366 10,000 -1,082 Descending Oakland Center
10:17PM 37.2156 -122.0892 348° North 278 320 9,300 -1,268 Descending Oakland Center
10:18PM 37.2881 -122.1094 347° North 270 311 7,400 -1,756 Descending Oakland Center
10:19PM 37.3572 -122.1272 348° North 257 296 5,700 -1,623 Descending Oakland Center
10:20PM 37.4269 -122.1461 348° North 255 293 4,100 -1,082 Descending Oakland Center
10:21PM 37.5069 -122.1675 348° North 251 289 3,500 -683 Descending Oakland Center
10:22PM 37.5458 -122.2183 314° West 218 251 2,700 -878 Descending Oakland Center
10:23PM 37.5719 -122.2675 304° West 190 219 1,700 -885 Descending Oakland Center
10:24PM 37.5900 -122.3081 299° West 159 183 900 -738 Descending Oakland Center
10:25PM 37.6064 -122.3461 299° West 138 159 200 -390 Descending Oakland Center
10:26PM 37.6231 -122.3825 300° West 135 155 100 -97 Descending Oakland Center